sensor_id;sensor_type;location;lat;lon;timestamp;P1;durP1;ratioP1;P2;durP2;ratioP2
71814;SDS011;59659;41.520;23.794;2023-06-22T00:00:10;12.93;;;6.17;;
71814;SDS011;59659;41.520;23.794;2023-06-22T00:01:23;12.50;;;7.23;;
71814;SDS011;59659;41.520;23.794;2023-06-22T00:02:35;12.87;;;7.40;;
71814;SDS011;59659;41.520;23.794;2023-06-22T00:03:47;10.47;;;6.40;;
71814;SDS011;59659;41.520;23.794;2023-06-22T00:04:58;13.13;;;6.00;;
71814;SDS011;59659;41.520;23.794;2023-06-22T00:06:10;10.20;;;6.53;;
71814;SDS011;59659;41.520;23.794;2023-06-22T00:07:21;9.50;;;5.77;;
71814;SDS011;59659;41.520;23.794;2023-06-22T00:08:33;13.03;;;6.87;;
71814;SDS011;59659;41.520;23.794;2023-06-22T00:09:44;13.17;;;6.80;;
71814;SDS011;59659;41.520;23.794;2023-06-22T00:10:56;9.47;;;6.27;;
71814;SDS011;59659;41.520;23.794;2023-06-22T00:12:07;11.87;;;6.63;;
71814;SDS011;59659;41.520;23.794;2023-06-22T00:13:19;8.93;;;5.93;;
71814;SDS011;59659;41.520;23.794;2023-06-22T00:14:31;10.47;;;6.90;;
71814;SDS011;59659;41.520;23.794;2023-06-22T00:15:42;13.43;;;6.63;;
71814;SDS011;59659;41.520;23.794;2023-06-22T00:16:53;10.80;;;5.73;;
71814;SDS011;59659;41.520;23.794;2023-06-22T00:18:08;11.10;;;6.60;;
71814;SDS011;59659;41.520;23.794;2023-06-22T00:19:21;10.50;;;6.57;;
71814;SDS011;59659;41.520;23.794;2023-06-22T00:20:33;12.33;;;6.37;;
71814;SDS011;59659;41.520;23.794;2023-06-22T00:21:48;13.53;;;6.60;;
71814;SDS011;59659;41.520;23.794;2023-06-22T00:23:04;13.03;;;6.37;;
71814;SDS011;59659;41.520;23.794;2023-06-22T00:24:20;13.27;;;5.93;;
71814;SDS011;59659;41.520;23.794;2023-06-22T00:25:31;10.83;;;6.30;;
71814;SDS011;59659;41.520;23.794;2023-06-22T00:26:43;7.70;;;5.77;;
71814;SDS011;59659;41.520;23.794;2023-06-22T00:27:54;11.93;;;6.30;;
71814;SDS011;59659;41.520;23.794;2023-06-22T00:29:06;14.77;;;7.57;;
71814;SDS011;59659;41.520;23.794;2023-06-22T00:30:18;19.33;;;8.00;;
71814;SDS011;59659;41.520;23.794;2023-06-22T00:31:30;21.70;;;9.10;;
71814;SDS011;59659;41.520;23.794;2023-06-22T00:32:42;15.77;;;8.23;;
71814;SDS011;59659;41.520;23.794;2023-06-22T00:33:54;17.63;;;9.20;;
71814;SDS011;59659;41.520;23.794;2023-06-22T00:35:05;17.97;;;8.53;;
71814;SDS011;59659;41.520;23.794;2023-06-22T00:36:17;24.00;;;9.30;;
71814;SDS011;59659;41.520;23.794;2023-06-22T00:37:30;14.40;;;8.13;;
71814;SDS011;59659;41.520;23.794;2023-06-22T00:38:41;14.27;;;7.00;;
71814;SDS011;59659;41.520;23.794;2023-06-22T00:39:53;14.27;;;7.60;;
71814;SDS011;59659;41.520;23.794;2023-06-22T00:41:05;9.27;;;6.40;;
71814;SDS011;59659;41.520;23.794;2023-06-22T00:42:16;15.00;;;6.90;;
71814;SDS011;59659;41.520;23.794;2023-06-22T00:43:28;13.63;;;6.63;;
71814;SDS011;59659;41.520;23.794;2023-06-22T00:44:39;11.30;;;6.93;;
71814;SDS011;59659;41.520;23.794;2023-06-22T00:45:51;10.97;;;6.97;;
71814;SDS011;59659;41.520;23.794;2023-06-22T00:47:03;14.00;;;7.03;;
71814;SDS011;59659;41.520;23.794;2023-06-22T00:48:15;13.20;;;7.30;;
71814;SDS011;59659;41.520;23.794;2023-06-22T00:49:28;10.53;;;6.03;;
71814;SDS011;59659;41.520;23.794;2023-06-22T00:50:39;12.33;;;7.70;;
71814;SDS011;59659;41.520;23.794;2023-06-22T00:51:51;10.17;;;6.73;;
71814;SDS011;59659;41.520;23.794;2023-06-22T00:53:07;12.57;;;7.67;;
71814;SDS011;59659;41.520;23.794;2023-06-22T00:54:22;12.40;;;6.57;;
71814;SDS011;59659;41.520;23.794;2023-06-22T00:55:42;14.30;;;7.10;;
71814;SDS011;59659;41.520;23.794;2023-06-22T00:57:03;12.90;;;6.83;;
71814;SDS011;59659;41.520;23.794;2023-06-22T00:58:15;12.20;;;6.73;;
71814;SDS011;59659;41.520;23.794;2023-06-22T00:59:26;12.63;;;7.27;;
71814;SDS011;59659;41.520;23.794;2023-06-22T01:00:39;11.57;;;6.97;;
71814;SDS011;59659;41.520;23.794;2023-06-22T01:01:50;11.97;;;6.67;;
71814;SDS011;59659;41.520;23.794;2023-06-22T01:03:02;12.03;;;7.10;;
71814;SDS011;59659;41.520;23.794;2023-06-22T01:04:15;9.73;;;6.17;;
71814;SDS011;59659;41.520;23.794;2023-06-22T01:05:26;10.30;;;6.53;;
71814;SDS011;59659;41.520;23.794;2023-06-22T01:06:45;12.37;;;7.03;;
71814;SDS011;59659;41.520;23.794;2023-06-22T01:08:21;14.43;;;7.47;;
71814;SDS011;59659;41.520;23.794;2023-06-22T01:09:35;10.07;;;6.87;;
71814;SDS011;59659;41.520;23.794;2023-06-22T01:10:53;12.77;;;6.47;;
71814;SDS011;59659;41.520;23.794;2023-06-22T01:12:07;11.93;;;7.23;;
71814;SDS011;59659;41.520;23.794;2023-06-22T01:15:18;10.10;;;6.43;;
71814;SDS011;59659;41.520;23.794;2023-06-22T01:16:14;15.07;;;7.10;;
71814;SDS011;59659;41.520;23.794;2023-06-22T01:17:27;13.80;;;6.73;;
71814;SDS011;59659;41.520;23.794;2023-06-22T01:18:40;12.00;;;6.60;;
71814;SDS011;59659;41.520;23.794;2023-06-22T01:19:54;14.80;;;7.53;;
71814;SDS011;59659;41.520;23.794;2023-06-22T01:21:10;10.83;;;5.47;;
71814;SDS011;59659;41.520;23.794;2023-06-22T01:22:28;16.00;;;7.17;;
71814;SDS011;59659;41.520;23.794;2023-06-22T01:23:51;11.77;;;6.50;;
71814;SDS011;59659;41.520;23.794;2023-06-22T01:25:12;9.53;;;6.70;;
71814;SDS011;59659;41.520;23.794;2023-06-22T01:26:28;13.23;;;6.00;;
71814;SDS011;59659;41.520;23.794;2023-06-22T01:28:57;10.50;;;6.50;;
71814;SDS011;59659;41.520;23.794;2023-06-22T01:30:10;10.30;;;6.40;;
71814;SDS011;59659;41.520;23.794;2023-06-22T01:31:23;12.20;;;6.43;;
71814;SDS011;59659;41.520;23.794;2023-06-22T01:32:35;11.07;;;6.93;;
71814;SDS011;59659;41.520;23.794;2023-06-22T01:33:54;9.97;;;6.03;;
71814;SDS011;59659;41.520;23.794;2023-06-22T01:35:07;14.87;;;6.97;;
71814;SDS011;59659;41.520;23.794;2023-06-22T01:36:19;9.00;;;6.00;;
71814;SDS011;59659;41.520;23.794;2023-06-22T01:37:32;11.00;;;6.33;;
71814;SDS011;59659;41.520;23.794;2023-06-22T01:38:44;11.57;;;6.50;;
71814;SDS011;59659;41.520;23.794;2023-06-22T01:39:56;9.27;;;6.37;;
71814;SDS011;59659;41.520;23.794;2023-06-22T01:41:08;13.00;;;7.00;;
71814;SDS011;59659;41.520;23.794;2023-06-22T01:42:21;9.73;;;6.67;;
71814;SDS011;59659;41.520;23.794;2023-06-22T01:43:32;9.43;;;6.03;;
71814;SDS011;59659;41.520;23.794;2023-06-22T01:44:44;10.90;;;6.37;;
71814;SDS011;59659;41.520;23.794;2023-06-22T01:45:57;16.63;;;7.73;;
71814;SDS011;59659;41.520;23.794;2023-06-22T01:47:09;11.17;;;6.83;;
71814;SDS011;59659;41.520;23.794;2023-06-22T01:48:21;15.17;;;8.23;;
71814;SDS011;59659;41.520;23.794;2023-06-22T01:49:33;10.07;;;6.70;;
71814;SDS011;59659;41.520;23.794;2023-06-22T01:50:44;10.90;;;7.00;;
71814;SDS011;59659;41.520;23.794;2023-06-22T01:51:56;11.13;;;6.40;;
71814;SDS011;59659;41.520;23.794;2023-06-22T01:53:08;17.37;;;6.40;;
71814;SDS011;59659;41.520;23.794;2023-06-22T01:54:19;10.27;;;6.93;;
71814;SDS011;59659;41.520;23.794;2023-06-22T01:55:31;9.30;;;6.13;;
71814;SDS011;59659;41.520;23.794;2023-06-22T01:56:42;15.03;;;6.73;;
71814;SDS011;59659;41.520;23.794;2023-06-22T01:57:54;11.57;;;6.17;;
71814;SDS011;59659;41.520;23.794;2023-06-22T01:59:09;10.77;;;6.90;;
71814;SDS011;59659;41.520;23.794;2023-06-22T02:00:23;10.07;;;6.80;;
71814;SDS011;59659;41.520;23.794;2023-06-22T02:01:42;10.50;;;6.07;;
71814;SDS011;59659;41.520;23.794;2023-06-22T02:04:26;10.17;;;6.20;;
71814;SDS011;59659;41.520;23.794;2023-06-22T02:05:39;9.73;;;6.20;;
71814;SDS011;59659;41.520;23.794;2023-06-22T02:06:55;8.47;;;5.67;;
71814;SDS011;59659;41.520;23.794;2023-06-22T02:08:11;9.73;;;6.50;;
71814;SDS011;59659;41.520;23.794;2023-06-22T02:09:28;8.87;;;5.53;;
71814;SDS011;59659;41.520;23.794;2023-06-22T02:10:41;9.40;;;6.20;;
71814;SDS011;59659;41.520;23.794;2023-06-22T02:11:53;11.67;;;6.70;;
71814;SDS011;59659;41.520;23.794;2023-06-22T02:13:07;11.93;;;7.73;;
71814;SDS011;59659;41.520;23.794;2023-06-22T02:14:20;12.00;;;7.30;;
71814;SDS011;59659;41.520;23.794;2023-06-22T02:15:32;11.50;;;7.37;;
71814;SDS011;59659;41.520;23.794;2023-06-22T02:16:44;10.33;;;6.20;;
71814;SDS011;59659;41.520;23.794;2023-06-22T02:17:56;10.83;;;6.20;;
71814;SDS011;59659;41.520;23.794;2023-06-22T02:19:07;9.80;;;6.57;;
71814;SDS011;59659;41.520;23.794;2023-06-22T02:20:19;11.73;;;6.27;;
71814;SDS011;59659;41.520;23.794;2023-06-22T02:21:31;10.43;;;6.40;;
71814;SDS011;59659;41.520;23.794;2023-06-22T02:22:43;14.07;;;7.10;;
71814;SDS011;59659;41.520;23.794;2023-06-22T02:23:55;13.23;;;6.77;;
71814;SDS011;59659;41.520;23.794;2023-06-22T02:25:06;9.50;;;6.80;;
71814;SDS011;59659;41.520;23.794;2023-06-22T02:26:18;9.53;;;6.80;;
71814;SDS011;59659;41.520;23.794;2023-06-22T02:27:30;8.70;;;5.67;;
71814;SDS011;59659;41.520;23.794;2023-06-22T02:28:41;9.23;;;6.00;;
71814;SDS011;59659;41.520;23.794;2023-06-22T02:29:53;10.50;;;7.10;;
71814;SDS011;59659;41.520;23.794;2023-06-22T02:31:04;12.83;;;6.93;;
71814;SDS011;59659;41.520;23.794;2023-06-22T02:32:16;9.43;;;6.63;;
71814;SDS011;59659;41.520;23.794;2023-06-22T02:33:29;9.30;;;6.27;;
71814;SDS011;59659;41.520;23.794;2023-06-22T02:34:40;10.60;;;6.10;;
71814;SDS011;59659;41.520;23.794;2023-06-22T02:35:52;9.83;;;6.53;;
71814;SDS011;59659;41.520;23.794;2023-06-22T02:37:04;10.03;;;7.00;;
71814;SDS011;59659;41.520;23.794;2023-06-22T02:38:16;15.23;;;7.03;;
71814;SDS011;59659;41.520;23.794;2023-06-22T02:39:28;9.13;;;6.43;;
71814;SDS011;59659;41.520;23.794;2023-06-22T02:40:40;9.87;;;6.20;;
71814;SDS011;59659;41.520;23.794;2023-06-22T02:41:52;9.50;;;6.47;;
71814;SDS011;59659;41.520;23.794;2023-06-22T02:43:04;10.03;;;6.30;;
71814;SDS011;59659;41.520;23.794;2023-06-22T02:44:16;10.47;;;6.37;;
71814;SDS011;59659;41.520;23.794;2023-06-22T02:45:28;9.60;;;6.70;;
71814;SDS011;59659;41.520;23.794;2023-06-22T02:46:40;11.00;;;6.97;;
71814;SDS011;59659;41.520;23.794;2023-06-22T02:47:51;10.07;;;5.97;;
71814;SDS011;59659;41.520;23.794;2023-06-22T02:49:03;11.43;;;6.60;;
71814;SDS011;59659;41.520;23.794;2023-06-22T02:50:14;13.13;;;7.03;;
71814;SDS011;59659;41.520;23.794;2023-06-22T02:51:26;11.23;;;5.73;;
71814;SDS011;59659;41.520;23.794;2023-06-22T02:52:37;11.70;;;7.10;;
71814;SDS011;59659;41.520;23.794;2023-06-22T02:53:50;10.53;;;5.90;;
71814;SDS011;59659;41.520;23.794;2023-06-22T02:55:03;10.50;;;6.30;;
71814;SDS011;59659;41.520;23.794;2023-06-22T02:56:15;10.40;;;6.60;;
71814;SDS011;59659;41.520;23.794;2023-06-22T02:57:27;12.37;;;6.60;;
71814;SDS011;59659;41.520;23.794;2023-06-22T02:58:38;12.43;;;7.23;;
71814;SDS011;59659;41.520;23.794;2023-06-22T02:59:50;11.37;;;6.30;;
71814;SDS011;59659;41.520;23.794;2023-06-22T03:01:01;11.10;;;7.17;;
71814;SDS011;59659;41.520;23.794;2023-06-22T03:02:16;10.23;;;7.00;;
71814;SDS011;59659;41.520;23.794;2023-06-22T03:03:27;10.80;;;7.30;;
71814;SDS011;59659;41.520;23.794;2023-06-22T03:04:39;11.30;;;6.20;;
71814;SDS011;59659;41.520;23.794;2023-06-22T03:05:50;14.53;;;7.33;;
71814;SDS011;59659;41.520;23.794;2023-06-22T03:07:04;9.70;;;6.93;;
71814;SDS011;59659;41.520;23.794;2023-06-22T03:08:17;11.20;;;6.63;;
71814;SDS011;59659;41.520;23.794;2023-06-22T03:09:29;11.13;;;6.57;;
71814;SDS011;59659;41.520;23.794;2023-06-22T03:10:40;17.50;;;7.50;;
71814;SDS011;59659;41.520;23.794;2023-06-22T03:11:52;10.53;;;6.47;;
71814;SDS011;59659;41.520;23.794;2023-06-22T03:13:03;14.67;;;6.87;;
71814;SDS011;59659;41.520;23.794;2023-06-22T03:14:15;10.57;;;6.87;;
71814;SDS011;59659;41.520;23.794;2023-06-22T03:15:27;11.40;;;6.90;;
71814;SDS011;59659;41.520;23.794;2023-06-22T03:16:40;11.70;;;6.53;;
71814;SDS011;59659;41.520;23.794;2023-06-22T03:17:52;11.80;;;6.40;;
71814;SDS011;59659;41.520;23.794;2023-06-22T03:19:04;11.37;;;6.93;;
71814;SDS011;59659;41.520;23.794;2023-06-22T03:20:15;12.63;;;6.70;;
71814;SDS011;59659;41.520;23.794;2023-06-22T03:21:27;12.97;;;7.20;;
71814;SDS011;59659;41.520;23.794;2023-06-22T03:22:40;14.07;;;7.13;;
71814;SDS011;59659;41.520;23.794;2023-06-22T03:23:52;12.17;;;6.90;;
71814;SDS011;59659;41.520;23.794;2023-06-22T03:25:03;15.30;;;7.70;;
71814;SDS011;59659;41.520;23.794;2023-06-22T03:26:18;11.50;;;7.57;;
71814;SDS011;59659;41.520;23.794;2023-06-22T03:27:30;12.57;;;7.50;;
71814;SDS011;59659;41.520;23.794;2023-06-22T03:28:41;12.00;;;7.27;;
71814;SDS011;59659;41.520;23.794;2023-06-22T03:29:53;12.30;;;7.37;;
71814;SDS011;59659;41.520;23.794;2023-06-22T03:31:04;10.73;;;6.17;;
71814;SDS011;59659;41.520;23.794;2023-06-22T03:32:18;14.60;;;6.73;;
71814;SDS011;59659;41.520;23.794;2023-06-22T03:33:29;12.77;;;6.80;;
71814;SDS011;59659;41.520;23.794;2023-06-22T03:34:41;12.37;;;7.00;;
71814;SDS011;59659;41.520;23.794;2023-06-22T03:35:58;11.20;;;7.00;;
71814;SDS011;59659;41.520;23.794;2023-06-22T03:37:10;11.47;;;7.67;;
71814;SDS011;59659;41.520;23.794;2023-06-22T03:38:22;10.40;;;6.90;;
71814;SDS011;59659;41.520;23.794;2023-06-22T03:39:33;13.03;;;7.60;;
71814;SDS011;59659;41.520;23.794;2023-06-22T03:40:45;10.60;;;6.30;;
71814;SDS011;59659;41.520;23.794;2023-06-22T03:41:56;12.17;;;7.57;;
71814;SDS011;59659;41.520;23.794;2023-06-22T03:43:08;11.87;;;7.20;;
71814;SDS011;59659;41.520;23.794;2023-06-22T03:44:19;12.57;;;6.87;;
71814;SDS011;59659;41.520;23.794;2023-06-22T03:45:31;14.47;;;6.93;;
71814;SDS011;59659;41.520;23.794;2023-06-22T03:46:42;14.63;;;7.27;;
71814;SDS011;59659;41.520;23.794;2023-06-22T03:47:54;9.97;;;6.73;;
71814;SDS011;59659;41.520;23.794;2023-06-22T03:49:05;11.30;;;6.90;;
71814;SDS011;59659;41.520;23.794;2023-06-22T03:50:17;13.40;;;7.50;;
71814;SDS011;59659;41.520;23.794;2023-06-22T03:51:32;12.20;;;7.23;;
71814;SDS011;59659;41.520;23.794;2023-06-22T03:52:43;11.47;;;7.47;;
71814;SDS011;59659;41.520;23.794;2023-06-22T03:53:55;13.00;;;7.93;;
71814;SDS011;59659;41.520;23.794;2023-06-22T03:55:07;11.43;;;7.20;;
71814;SDS011;59659;41.520;23.794;2023-06-22T03:56:18;12.60;;;7.07;;
71814;SDS011;59659;41.520;23.794;2023-06-22T03:57:31;12.27;;;7.30;;
71814;SDS011;59659;41.520;23.794;2023-06-22T03:58:43;12.10;;;6.37;;
71814;SDS011;59659;41.520;23.794;2023-06-22T03:59:56;13.47;;;7.63;;
71814;SDS011;59659;41.520;23.794;2023-06-22T04:01:08;10.80;;;7.47;;
71814;SDS011;59659;41.520;23.794;2023-06-22T04:02:22;14.53;;;8.47;;
71814;SDS011;59659;41.520;23.794;2023-06-22T04:03:34;13.53;;;7.60;;
71814;SDS011;59659;41.520;23.794;2023-06-22T04:04:46;11.90;;;7.53;;
71814;SDS011;59659;41.520;23.794;2023-06-22T04:05:57;17.40;;;7.43;;
71814;SDS011;59659;41.520;23.794;2023-06-22T04:07:09;13.17;;;6.97;;
71814;SDS011;59659;41.520;23.794;2023-06-22T04:08:20;16.43;;;7.70;;
71814;SDS011;59659;41.520;23.794;2023-06-22T04:09:32;12.77;;;7.37;;
71814;SDS011;59659;41.520;23.794;2023-06-22T04:10:43;12.63;;;7.73;;
71814;SDS011;59659;41.520;23.794;2023-06-22T04:11:55;10.63;;;6.20;;
71814;SDS011;59659;41.520;23.794;2023-06-22T04:13:06;12.30;;;6.97;;
71814;SDS011;59659;41.520;23.794;2023-06-22T04:14:18;13.77;;;7.50;;
71814;SDS011;59659;41.520;23.794;2023-06-22T04:15:29;13.40;;;7.63;;
71814;SDS011;59659;41.520;23.794;2023-06-22T04:16:41;10.37;;;7.30;;
71814;SDS011;59659;41.520;23.794;2023-06-22T04:17:54;11.37;;;6.93;;
71814;SDS011;59659;41.520;23.794;2023-06-22T04:19:05;13.17;;;7.90;;
71814;SDS011;59659;41.520;23.794;2023-06-22T04:20:17;12.40;;;7.90;;
71814;SDS011;59659;41.520;23.794;2023-06-22T04:21:29;10.87;;;7.20;;
71814;SDS011;59659;41.520;23.794;2023-06-22T04:22:40;10.67;;;7.10;;
71814;SDS011;59659;41.520;23.794;2023-06-22T04:23:52;13.87;;;7.40;;
71814;SDS011;59659;41.520;23.794;2023-06-22T04:25:03;13.70;;;7.67;;
71814;SDS011;59659;41.520;23.794;2023-06-22T04:26:15;15.10;;;8.37;;
71814;SDS011;59659;41.520;23.794;2023-06-22T04:27:26;13.70;;;8.60;;
71814;SDS011;59659;41.520;23.794;2023-06-22T04:28:38;17.63;;;7.50;;
71814;SDS011;59659;41.520;23.794;2023-06-22T04:29:49;14.60;;;7.50;;
71814;SDS011;59659;41.520;23.794;2023-06-22T04:31:02;15.07;;;7.77;;
71814;SDS011;59659;41.520;23.794;2023-06-22T04:32:17;15.47;;;8.60;;
71814;SDS011;59659;41.520;23.794;2023-06-22T04:33:29;12.50;;;8.57;;
71814;SDS011;59659;41.520;23.794;2023-06-22T04:34:41;12.20;;;6.90;;
71814;SDS011;59659;41.520;23.794;2023-06-22T04:35:52;12.50;;;7.10;;
71814;SDS011;59659;41.520;23.794;2023-06-22T04:37:04;14.07;;;7.60;;
71814;SDS011;59659;41.520;23.794;2023-06-22T04:38:16;14.00;;;7.43;;
71814;SDS011;59659;41.520;23.794;2023-06-22T04:39:27;13.43;;;7.73;;
71814;SDS011;59659;41.520;23.794;2023-06-22T04:40:40;11.67;;;7.80;;
71814;SDS011;59659;41.520;23.794;2023-06-22T04:41:51;14.17;;;7.30;;
71814;SDS011;59659;41.520;23.794;2023-06-22T04:43:03;12.53;;;8.03;;
71814;SDS011;59659;41.520;23.794;2023-06-22T04:44:16;15.33;;;8.17;;
71814;SDS011;59659;41.520;23.794;2023-06-22T04:45:36;11.97;;;7.70;;
71814;SDS011;59659;41.520;23.794;2023-06-22T04:46:54;11.50;;;7.83;;
71814;SDS011;59659;41.520;23.794;2023-06-22T04:48:11;11.77;;;6.93;;
71814;SDS011;59659;41.520;23.794;2023-06-22T04:49:27;12.70;;;8.27;;
71814;SDS011;59659;41.520;23.794;2023-06-22T04:50:46;16.13;;;8.07;;
71814;SDS011;59659;41.520;23.794;2023-06-22T04:51:57;13.57;;;8.17;;
71814;SDS011;59659;41.520;23.794;2023-06-22T04:53:09;12.93;;;7.13;;
71814;SDS011;59659;41.520;23.794;2023-06-22T04:54:23;9.93;;;7.47;;
71814;SDS011;59659;41.520;23.794;2023-06-22T04:55:35;14.00;;;8.47;;
71814;SDS011;59659;41.520;23.794;2023-06-22T04:56:49;13.57;;;7.63;;
71814;SDS011;59659;41.520;23.794;2023-06-22T04:58:07;9.97;;;7.67;;
71814;SDS011;59659;41.520;23.794;2023-06-22T04:59:19;13.47;;;8.23;;
71814;SDS011;59659;41.520;23.794;2023-06-22T05:00:31;14.37;;;8.43;;
71814;SDS011;59659;41.520;23.794;2023-06-22T05:01:42;10.43;;;6.80;;
71814;SDS011;59659;41.520;23.794;2023-06-22T05:02:54;12.47;;;6.83;;
71814;SDS011;59659;41.520;23.794;2023-06-22T05:04:24;10.83;;;7.17;;
71814;SDS011;59659;41.520;23.794;2023-06-22T05:05:36;11.50;;;7.27;;
71814;SDS011;59659;41.520;23.794;2023-06-22T05:06:48;12.20;;;7.03;;
71814;SDS011;59659;41.520;23.794;2023-06-22T05:08:00;12.30;;;7.67;;
71814;SDS011;59659;41.520;23.794;2023-06-22T05:09:12;15.57;;;8.30;;
71814;SDS011;59659;41.520;23.794;2023-06-22T05:10:24;12.20;;;6.97;;
71814;SDS011;59659;41.520;23.794;2023-06-22T05:11:36;12.30;;;7.20;;
71814;SDS011;59659;41.520;23.794;2023-06-22T05:12:47;14.60;;;7.87;;
71814;SDS011;59659;41.520;23.794;2023-06-22T05:13:59;13.90;;;7.97;;
71814;SDS011;59659;41.520;23.794;2023-06-22T05:15:10;12.80;;;7.53;;
71814;SDS011;59659;41.520;23.794;2023-06-22T05:16:22;12.00;;;6.97;;
71814;SDS011;59659;41.520;23.794;2023-06-22T05:17:35;14.30;;;6.90;;
71814;SDS011;59659;41.520;23.794;2023-06-22T05:18:47;10.40;;;7.27;;
71814;SDS011;59659;41.520;23.794;2023-06-22T05:19:59;11.03;;;6.93;;
71814;SDS011;59659;41.520;23.794;2023-06-22T05:21:10;8.83;;;6.37;;
71814;SDS011;59659;41.520;23.794;2023-06-22T05:22:22;12.97;;;7.93;;
71814;SDS011;59659;41.520;23.794;2023-06-22T05:23:33;11.70;;;6.70;;
71814;SDS011;59659;41.520;23.794;2023-06-22T05:24:45;11.57;;;7.03;;
71814;SDS011;59659;41.520;23.794;2023-06-22T05:25:56;12.43;;;7.37;;
71814;SDS011;59659;41.520;23.794;2023-06-22T05:27:09;14.17;;;7.40;;
71814;SDS011;59659;41.520;23.794;2023-06-22T05:28:21;13.20;;;8.20;;
71814;SDS011;59659;41.520;23.794;2023-06-22T05:29:34;13.20;;;7.50;;
71814;SDS011;59659;41.520;23.794;2023-06-22T05:30:46;10.30;;;7.50;;
71814;SDS011;59659;41.520;23.794;2023-06-22T05:31:58;11.47;;;7.53;;
71814;SDS011;59659;41.520;23.794;2023-06-22T05:33:09;18.60;;;7.73;;
71814;SDS011;59659;41.520;23.794;2023-06-22T05:34:21;16.27;;;7.70;;
71814;SDS011;59659;41.520;23.794;2023-06-22T05:35:32;12.63;;;7.70;;
71814;SDS011;59659;41.520;23.794;2023-06-22T05:36:44;11.20;;;7.80;;
71814;SDS011;59659;41.520;23.794;2023-06-22T05:37:55;18.37;;;9.10;;
71814;SDS011;59659;41.520;23.794;2023-06-22T05:39:10;17.27;;;9.33;;
71814;SDS011;59659;41.520;23.794;2023-06-22T05:40:22;21.67;;;11.17;;
71814;SDS011;59659;41.520;23.794;2023-06-22T05:41:34;22.70;;;11.23;;
71814;SDS011;59659;41.520;23.794;2023-06-22T05:42:45;19.90;;;10.27;;
71814;SDS011;59659;41.520;23.794;2023-06-22T05:43:57;15.87;;;9.57;;
71814;SDS011;59659;41.520;23.794;2023-06-22T05:45:08;14.63;;;8.00;;
71814;SDS011;59659;41.520;23.794;2023-06-22T05:46:20;10.00;;;6.73;;
71814;SDS011;59659;41.520;23.794;2023-06-22T05:47:32;12.57;;;7.73;;
71814;SDS011;59659;41.520;23.794;2023-06-22T05:48:43;15.00;;;8.53;;
71814;SDS011;59659;41.520;23.794;2023-06-22T05:49:55;16.83;;;8.47;;
71814;SDS011;59659;41.520;23.794;2023-06-22T05:51:07;11.17;;;6.53;;
71814;SDS011;59659;41.520;23.794;2023-06-22T05:52:18;12.50;;;8.10;;
71814;SDS011;59659;41.520;23.794;2023-06-22T05:53:30;12.00;;;7.37;;
71814;SDS011;59659;41.520;23.794;2023-06-22T05:54:41;11.00;;;7.70;;
71814;SDS011;59659;41.520;23.794;2023-06-22T05:55:54;12.77;;;7.13;;
71814;SDS011;59659;41.520;23.794;2023-06-22T05:57:05;12.33;;;7.33;;
71814;SDS011;59659;41.520;23.794;2023-06-22T05:58:17;13.10;;;8.60;;
71814;SDS011;59659;41.520;23.794;2023-06-22T05:59:28;11.93;;;7.37;;
71814;SDS011;59659;41.520;23.794;2023-06-22T06:00:40;12.53;;;7.83;;
71814;SDS011;59659;41.520;23.794;2023-06-22T06:01:52;12.83;;;8.27;;
71814;SDS011;59659;41.520;23.794;2023-06-22T06:03:03;13.30;;;7.73;;
71814;SDS011;59659;41.520;23.794;2023-06-22T06:04:18;11.40;;;7.80;;
71814;SDS011;59659;41.520;23.794;2023-06-22T06:05:31;10.73;;;6.90;;
71814;SDS011;59659;41.520;23.794;2023-06-22T06:06:42;12.17;;;7.47;;
71814;SDS011;59659;41.520;23.794;2023-06-22T06:07:54;12.17;;;8.10;;
71814;SDS011;59659;41.520;23.794;2023-06-22T06:09:05;11.03;;;6.97;;
71814;SDS011;59659;41.520;23.794;2023-06-22T06:10:18;12.00;;;7.73;;
71814;SDS011;59659;41.520;23.794;2023-06-22T06:11:30;12.23;;;7.03;;
71814;SDS011;59659;41.520;23.794;2023-06-22T06:12:42;13.27;;;8.33;;
71814;SDS011;59659;41.520;23.794;2023-06-22T06:13:54;11.53;;;7.30;;
71814;SDS011;59659;41.520;23.794;2023-06-22T06:15:05;10.50;;;7.57;;
71814;SDS011;59659;41.520;23.794;2023-06-22T06:16:20;13.83;;;7.23;;
71814;SDS011;59659;41.520;23.794;2023-06-22T06:17:31;11.17;;;7.33;;
71814;SDS011;59659;41.520;23.794;2023-06-22T06:18:43;10.67;;;7.77;;
71814;SDS011;59659;41.520;23.794;2023-06-22T06:19:55;12.53;;;7.70;;
71814;SDS011;59659;41.520;23.794;2023-06-22T06:21:06;12.37;;;7.80;;
71814;SDS011;59659;41.520;23.794;2023-06-22T06:22:18;11.63;;;7.63;;
71814;SDS011;59659;41.520;23.794;2023-06-22T06:23:30;9.97;;;7.10;;
71814;SDS011;59659;41.520;23.794;2023-06-22T06:24:42;13.00;;;7.73;;
71814;SDS011;59659;41.520;23.794;2023-06-22T06:25:53;11.37;;;7.40;;
71814;SDS011;59659;41.520;23.794;2023-06-22T06:27:05;9.80;;;6.77;;
71814;SDS011;59659;41.520;23.794;2023-06-22T06:28:16;11.00;;;7.40;;
71814;SDS011;59659;41.520;23.794;2023-06-22T06:29:28;10.47;;;7.10;;
71814;SDS011;59659;41.520;23.794;2023-06-22T06:30:39;11.53;;;7.90;;
71814;SDS011;59659;41.520;23.794;2023-06-22T06:31:52;10.03;;;7.03;;
71814;SDS011;59659;41.520;23.794;2023-06-22T06:33:05;10.10;;;7.23;;
71814;SDS011;59659;41.520;23.794;2023-06-22T06:34:20;10.80;;;7.47;;
71814;SDS011;59659;41.520;23.794;2023-06-22T06:35:31;9.30;;;7.20;;
71814;SDS011;59659;41.520;23.794;2023-06-22T06:36:43;11.57;;;7.43;;
71814;SDS011;59659;41.520;23.794;2023-06-22T06:37:55;10.33;;;6.70;;
71814;SDS011;59659;41.520;23.794;2023-06-22T06:39:08;14.77;;;7.43;;
71814;SDS011;59659;41.520;23.794;2023-06-22T06:40:20;12.30;;;7.73;;
71814;SDS011;59659;41.520;23.794;2023-06-22T06:41:32;10.90;;;7.20;;
71814;SDS011;59659;41.520;23.794;2023-06-22T06:42:44;12.13;;;7.53;;
71814;SDS011;59659;41.520;23.794;2023-06-22T06:43:56;10.63;;;7.67;;
71814;SDS011;59659;41.520;23.794;2023-06-22T06:45:08;11.10;;;7.10;;
71814;SDS011;59659;41.520;23.794;2023-06-22T06:46:20;11.00;;;7.50;;
71814;SDS011;59659;41.520;23.794;2023-06-22T06:47:32;12.27;;;7.47;;
71814;SDS011;59659;41.520;23.794;2023-06-22T06:48:43;11.77;;;7.33;;
71814;SDS011;59659;41.520;23.794;2023-06-22T06:49:55;9.90;;;7.50;;
71814;SDS011;59659;41.520;23.794;2023-06-22T06:51:06;13.33;;;8.30;;
71814;SDS011;59659;41.520;23.794;2023-06-22T06:52:20;12.03;;;8.53;;
71814;SDS011;59659;41.520;23.794;2023-06-22T06:53:32;10.67;;;7.43;;
71814;SDS011;59659;41.520;23.794;2023-06-22T06:54:43;9.93;;;7.27;;
71814;SDS011;59659;41.520;23.794;2023-06-22T06:55:55;14.03;;;7.73;;
71814;SDS011;59659;41.520;23.794;2023-06-22T06:57:06;14.43;;;7.33;;
71814;SDS011;59659;41.520;23.794;2023-06-22T06:58:18;9.40;;;6.57;;
71814;SDS011;59659;41.520;23.794;2023-06-22T06:59:30;10.97;;;7.43;;
71814;SDS011;59659;41.520;23.794;2023-06-22T07:00:41;15.33;;;7.63;;
71814;SDS011;59659;41.520;23.794;2023-06-22T07:01:54;10.20;;;7.07;;
71814;SDS011;59659;41.520;23.794;2023-06-22T07:03:06;11.37;;;7.57;;
71814;SDS011;59659;41.520;23.794;2023-06-22T07:04:18;9.47;;;7.27;;
71814;SDS011;59659;41.520;23.794;2023-06-22T07:05:30;9.53;;;6.47;;
71814;SDS011;59659;41.520;23.794;2023-06-22T07:06:41;11.47;;;6.70;;
71814;SDS011;59659;41.520;23.794;2023-06-22T07:07:54;12.37;;;7.33;;
71814;SDS011;59659;41.520;23.794;2023-06-22T07:09:05;11.17;;;7.70;;